createdAt,value
2023-03-14T00:01:08.151Z,4.10
2023-03-14T00:05:10.472Z,4.57
2023-03-14T00:09:11.809Z,4.80
2023-03-14T00:13:13.193Z,5.80
2023-03-14T00:17:14.644Z,4.53
2023-03-14T00:21:16.702Z,7.77
2023-03-14T00:25:18.223Z,6.37
2023-03-14T00:29:19.610Z,4.63
2023-03-14T00:33:21.212Z,6.83
2023-03-14T00:37:22.727Z,2.83
2023-03-14T00:41:24.795Z,4.87
2023-03-14T00:45:26.185Z,3.90
2023-03-14T00:49:27.610Z,3.77
2023-03-14T00:53:28.969Z,5.60
2023-03-14T00:57:30.400Z,3.83
2023-03-14T01:01:31.874Z,4.00
2023-03-14T01:05:33.517Z,4.53
2023-03-14T01:09:34.810Z,6.93
2023-03-14T01:13:36.977Z,4.07
2023-03-14T01:17:41.326Z,4.23
2023-03-14T01:21:42.714Z,7.27
2023-03-14T01:25:44.023Z,4.30
2023-03-14T01:29:45.363Z,3.90
2023-03-14T01:33:47.315Z,5.13
2023-03-14T01:37:48.627Z,5.13
2023-03-14T01:41:49.982Z,6.63
2023-03-14T01:46:06.565Z,6.27
2023-03-14T01:50:12.853Z,6.63
2023-03-14T01:54:26.421Z,6.50
2023-03-14T01:58:30.972Z,5.57
2023-03-14T02:02:33.026Z,6.70
2023-03-14T02:06:50.840Z,5.27
2023-03-14T02:10:52.320Z,8.77
2023-03-14T02:14:53.770Z,8.50
2023-03-14T02:18:55.090Z,4.90
2023-03-14T02:22:56.848Z,3.23
2023-03-14T02:27:21.012Z,3.10
2023-03-14T02:31:23.383Z,4.17
2023-03-14T02:35:38.544Z,3.17
2023-03-14T02:39:45.325Z,2.97
2023-03-14T02:43:46.733Z,4.47
2023-03-14T02:47:55.127Z,2.50
2023-03-14T02:51:56.468Z,2.33
2023-03-14T02:55:58.332Z,3.03
2023-03-14T03:00:00.977Z,3.03
2023-03-14T03:04:02.505Z,2.90
2023-03-14T03:08:04.778Z,4.20
2023-03-14T03:12:06.286Z,6.33
2023-03-14T03:16:07.906Z,6.40
2023-03-14T03:20:10.398Z,3.73
2023-03-14T03:24:11.800Z,4.67
2023-03-14T03:28:13.131Z,4.73
2023-03-14T03:32:14.472Z,3.63
2023-03-14T03:36:15.774Z,6.40
2023-03-14T03:40:17.377Z,5.67
2023-03-14T03:44:18.776Z,7.27
2023-03-14T03:48:20.116Z,7.43
2023-03-14T03:52:21.528Z,7.60
2023-03-14T03:56:22.848Z,7.70
2023-03-14T04:00:24.402Z,6.23
2023-03-14T04:04:25.859Z,5.80
2023-03-14T04:08:27.357Z,2.33
2023-03-14T04:12:28.621Z,5.30
2023-03-14T04:16:32.299Z,4.57
2023-03-14T04:20:36.035Z,6.33
2023-03-14T04:24:37.400Z,4.20
2023-03-14T04:28:39.976Z,2.83
2023-03-14T04:32:41.273Z,4.97
2023-03-14T04:36:42.684Z,2.43
2023-03-14T04:40:45.147Z,5.10
2023-03-14T04:44:47.731Z,3.77
2023-03-14T04:48:49.075Z,4.43
2023-03-14T04:52:50.671Z,2.40
2023-03-14T04:56:51.998Z,2.90
2023-03-14T05:00:53.386Z,2.80
2023-03-14T05:04:54.698Z,3.37
2023-03-14T05:08:56.044Z,3.73
2023-03-14T05:12:57.392Z,3.70
2023-03-14T05:16:58.660Z,1.93
2023-03-14T05:21:00.353Z,1.30
2023-03-14T05:25:01.801Z,3.13
2023-03-14T05:29:03.140Z,2.50
2023-03-14T05:33:04.438Z,2.80
2023-03-14T05:37:05.849Z,1.30
2023-03-14T05:41:07.468Z,1.97
2023-03-14T05:45:09.063Z,1.23
2023-03-14T05:49:10.513Z,1.47
2023-03-14T05:53:12.013Z,0.83
2023-03-14T05:57:14.641Z,0.73
2023-03-14T06:01:16.009Z,0.80
2023-03-14T06:05:17.862Z,0.90
2023-03-14T06:09:20.888Z,0.83
2023-03-14T06:13:22.168Z,0.80
2023-03-14T06:17:23.520Z,0.87
2023-03-14T06:21:24.862Z,0.97
2023-03-14T06:25:26.233Z,1.13
2023-03-14T06:29:27.562Z,0.70
2023-03-14T06:33:28.910Z,1.70
2023-03-14T06:37:30.762Z,1.30
2023-03-14T06:41:33.594Z,1.30
2023-03-14T06:45:34.884Z,1.33
2023-03-14T06:49:36.792Z,1.00
2023-03-14T06:53:38.189Z,1.60
2023-03-14T06:57:39.492Z,1.40
2023-03-14T07:01:41.268Z,1.07
2023-03-14T07:05:42.661Z,0.80
2023-03-14T07:09:44.069Z,2.27
2023-03-14T07:13:45.416Z,1.30
2023-03-14T07:17:49.373Z,1.53
2023-03-14T07:21:50.841Z,1.57
2023-03-14T07:25:53.859Z,1.00
2023-03-14T07:29:55.186Z,2.23
2023-03-14T07:33:56.542Z,1.73
2023-03-14T07:37:57.860Z,1.50
2023-03-14T07:42:00.364Z,2.43
2023-03-14T07:46:02.188Z,1.03
2023-03-14T07:50:05.470Z,1.37
2023-03-14T07:54:06.938Z,2.97
2023-03-14T07:58:08.286Z,1.43
2023-03-14T08:02:12.891Z,3.37
2023-03-14T08:06:14.350Z,2.73
2023-03-14T08:10:24.901Z,3.13
2023-03-14T08:14:26.414Z,1.40
2023-03-14T08:18:27.936Z,1.67
2023-03-14T08:22:29.263Z,1.57
2023-03-14T08:26:30.566Z,1.30
2023-03-14T08:30:31.999Z,1.53
2023-03-14T08:34:34.231Z,1.27
2023-03-14T08:38:35.636Z,1.10
2023-03-14T08:42:41.084Z,0.73
2023-03-14T08:46:42.457Z,1.57
2023-03-14T08:50:44.667Z,1.70
2023-03-14T08:54:46.403Z,1.63
2023-03-14T08:58:48.897Z,1.63
2023-03-14T09:02:51.075Z,1.13
2023-03-14T09:06:52.508Z,1.33
2023-03-14T09:10:53.927Z,0.90
2023-03-14T09:14:55.416Z,2.40
2023-03-14T09:19:00.484Z,2.37
2023-03-14T09:23:01.836Z,1.37
2023-03-14T09:27:03.465Z,3.80
2023-03-14T09:31:09.131Z,1.23
2023-03-14T09:35:10.845Z,1.30
2023-03-14T09:39:12.777Z,3.00
2023-03-14T09:43:15.904Z,3.83
2023-03-14T09:47:20.760Z,3.47
2023-03-14T09:51:25.138Z,1.60
2023-03-14T09:55:26.792Z,2.20
2023-03-14T09:59:30.142Z,4.37
2023-03-14T10:03:36.339Z,4.47
2023-03-14T10:07:39.158Z,4.43
2023-03-14T10:11:40.642Z,4.20
2023-03-14T10:15:42.124Z,6.30
2023-03-14T10:19:52.538Z,3.10
2023-03-14T10:23:54.354Z,4.07
2023-03-14T10:27:55.771Z,3.50
2023-03-14T10:32:02.639Z,3.57
2023-03-14T10:36:17.713Z,2.40
2023-03-14T10:40:21.467Z,2.80
2023-03-14T10:44:26.548Z,6.20
2023-03-14T10:48:34.529Z,3.17
2023-03-14T10:52:51.263Z,2.93
2023-03-14T10:57:04.670Z,3.67
2023-03-14T11:01:09.145Z,2.83
2023-03-14T11:05:25.113Z,6.27
2023-03-14T11:09:37.049Z,4.10
2023-03-14T11:13:49.346Z,5.17
2023-03-14T11:18:17.299Z,4.50
2023-03-14T11:22:25.086Z,4.13
2023-03-14T11:26:31.845Z,3.90
2023-03-14T11:30:43.400Z,3.53
2023-03-14T11:34:52.946Z,2.90
2023-03-14T11:38:58.058Z,4.10
2023-03-14T11:43:22.769Z,5.80
2023-03-14T11:47:33.235Z,3.03
2023-03-14T11:51:40.356Z,3.20
2023-03-14T11:55:43.586Z,3.70
2023-03-14T11:59:58.974Z,2.73
2023-03-14T12:04:12.906Z,2.23
2023-03-14T12:08:33.831Z,2.33
2023-03-14T12:12:36.080Z,3.10
2023-03-14T12:16:41.347Z,3.80
2023-03-14T12:20:53.701Z,4.67
2023-03-14T12:25:13.792Z,5.73
2023-03-14T12:29:18.524Z,3.57
2023-03-14T12:33:19.764Z,3.40
2023-03-14T12:37:35.161Z,2.93
2023-03-14T12:41:45.536Z,2.30
2023-03-14T12:46:20.758Z,3.03
2023-03-14T12:50:27.782Z,4.07
2023-03-14T12:55:07.834Z,3.87
2023-03-14T12:59:29.322Z,3.30
2023-03-14T13:03:45.986Z,5.00
2023-03-14T13:07:47.285Z,3.83
2023-03-14T13:11:48.704Z,3.83
2023-03-14T13:15:58.807Z,4.10
2023-03-14T13:20:06.510Z,6.60
2023-03-14T13:24:29.095Z,2.30
2023-03-14T13:28:32.079Z,4.77
2023-03-14T13:32:33.505Z,3.00
2023-03-14T13:36:37.385Z,3.30
2023-03-14T13:40:39.200Z,4.27
2023-03-14T13:44:40.998Z,3.73
2023-03-14T13:48:56.216Z,3.87
2023-03-14T13:52:58.661Z,7.00
2023-03-14T13:57:05.794Z,6.30
2023-03-14T14:01:23.987Z,4.60
2023-03-14T14:05:30.581Z,6.53
2023-03-14T14:09:38.514Z,7.17
2023-03-14T14:13:40.005Z,8.57
2023-03-14T14:17:45.478Z,13.10
2023-03-14T14:21:47.130Z,10.70
2023-03-14T14:25:50.166Z,10.80
2023-03-14T14:30:02.053Z,12.07
2023-03-14T14:34:04.925Z,12.40
2023-03-14T14:38:16.985Z,12.80
2023-03-14T14:42:24.220Z,12.73
2023-03-14T14:46:28.966Z,12.40
2023-03-14T14:50:37.761Z,12.60
2023-03-14T14:54:45.432Z,10.80
2023-03-14T14:58:48.146Z,10.50
2023-03-14T15:02:55.207Z,8.23
2023-03-14T15:06:56.859Z,13.40
2023-03-14T15:10:59.612Z,13.70
2023-03-14T15:15:01.128Z,11.40
2023-03-14T15:19:23.696Z,12.77
2023-03-14T15:23:26.437Z,13.97
2023-03-14T15:27:31.101Z,12.90
2023-03-14T15:31:32.459Z,13.17
2023-03-14T15:35:33.809Z,13.23
2023-03-14T15:39:35.821Z,10.80
2023-03-14T15:43:37.134Z,10.80
2023-03-14T15:47:38.531Z,13.97
2023-03-14T15:51:39.859Z,10.47
2023-03-14T15:55:41.231Z,10.50
2023-03-14T15:59:42.631Z,10.30
2023-03-14T16:03:45.824Z,9.87
2023-03-14T16:07:47.658Z,13.93
2023-03-14T16:11:49.049Z,11.97
2023-03-14T16:16:01.462Z,11.07
2023-03-14T16:20:04.743Z,15.53
2023-03-14T16:24:07.070Z,9.40
2023-03-14T16:28:11.097Z,13.70
2023-03-14T16:32:13.834Z,10.43
2023-03-14T16:36:15.702Z,10.87
2023-03-14T16:40:17.119Z,7.67
2023-03-14T16:44:18.463Z,10.30
2023-03-14T16:48:20.728Z,8.47
2023-03-14T16:52:22.003Z,8.10
2023-03-14T16:56:23.620Z,7.37
2023-03-14T17:00:25.102Z,8.27
2023-03-14T17:04:26.527Z,7.67
2023-03-14T17:08:28.007Z,7.13
2023-03-14T17:12:29.325Z,11.33
2023-03-14T17:16:31.335Z,8.13
2023-03-14T17:20:32.937Z,7.03
2023-03-14T17:24:34.248Z,7.97
2023-03-14T17:28:36.021Z,7.60
2023-03-14T17:32:37.389Z,6.20
2023-03-14T17:36:38.692Z,5.77
2023-03-14T17:40:40.119Z,8.17
2023-03-14T17:44:41.815Z,7.87
2023-03-14T17:48:48.280Z,8.67
2023-03-14T17:52:49.607Z,8.83
2023-03-14T17:56:50.919Z,7.27
2023-03-14T18:00:52.199Z,6.60
2023-03-14T18:04:53.739Z,5.87
2023-03-14T18:08:56.349Z,6.73
2023-03-14T18:12:57.752Z,8.00
2023-03-14T18:16:59.029Z,7.57
2023-03-14T18:21:00.392Z,6.77
2023-03-14T18:25:01.795Z,7.53
2023-03-14T18:29:03.366Z,7.10
2023-03-14T18:33:05.452Z,9.80
2023-03-14T18:37:07.238Z,8.17
2023-03-14T18:41:13.966Z,8.77
2023-03-14T18:45:15.597Z,8.77
2023-03-14T18:49:17.153Z,9.00
2023-03-14T18:53:18.745Z,7.47
2023-03-14T18:57:20.048Z,9.60
2023-03-14T19:01:22.532Z,9.33
2023-03-14T19:05:23.879Z,8.53
2023-03-14T19:09:25.293Z,11.13
2023-03-14T19:13:27.542Z,12.47
2023-03-14T19:17:28.915Z,11.20
2023-03-14T19:21:33.250Z,6.07
2023-03-14T19:25:34.639Z,6.10
2023-03-14T19:29:41.963Z,10.33
2023-03-14T19:33:43.302Z,7.80
2023-03-14T19:37:45.387Z,5.83
2023-03-14T19:41:46.765Z,7.03
2023-03-14T19:45:48.152Z,9.30
2023-03-14T19:49:49.618Z,12.20
2023-03-14T19:53:52.571Z,10.47
2023-03-14T19:57:54.358Z,8.73
2023-03-14T20:01:58.140Z,7.63
2023-03-14T20:06:04.006Z,7.00
2023-03-14T20:10:07.559Z,7.63
2023-03-14T20:14:09.662Z,9.47
2023-03-14T20:18:10.961Z,7.17
2023-03-14T20:22:12.315Z,6.40
2023-03-14T20:26:13.699Z,7.80
2023-03-14T20:30:18.691Z,8.03
2023-03-14T20:34:20.203Z,10.10
2023-03-14T20:38:24.246Z,13.10
2023-03-14T20:42:27.042Z,12.20
2023-03-14T20:46:28.392Z,7.43
2023-03-14T20:50:29.805Z,8.83
2023-03-14T20:54:32.046Z,8.13
2023-03-14T20:58:34.015Z,5.20
2023-03-14T21:02:36.296Z,10.63
2023-03-14T21:06:37.719Z,8.93
2023-03-14T21:10:39.139Z,8.47
2023-03-14T21:14:40.527Z,11.13
2023-03-14T21:18:41.899Z,10.73
2023-03-14T21:22:43.288Z,11.03
2023-03-14T21:26:46.600Z,9.23
2023-03-14T21:30:47.922Z,8.80
2023-03-14T21:34:49.583Z,8.87
2023-03-14T21:38:51.176Z,10.93
2023-03-14T21:42:55.433Z,9.17
2023-03-14T21:46:56.854Z,7.80
2023-03-14T21:50:58.188Z,7.07
2023-03-14T21:54:59.476Z,11.37
2023-03-14T21:59:00.806Z,6.70
2023-03-14T22:03:13.102Z,8.00
2023-03-14T22:07:18.551Z,8.77
2023-03-14T22:11:22.428Z,7.97
2023-03-14T22:15:23.782Z,8.33
2023-03-14T22:19:26.810Z,9.87
2023-03-14T22:23:28.265Z,9.17
2023-03-14T22:27:29.574Z,8.93
2023-03-14T22:31:31.049Z,13.10
2023-03-14T22:35:32.706Z,8.63
2023-03-14T22:39:34.563Z,11.70
2023-03-14T22:43:35.907Z,8.93
2023-03-14T22:47:37.230Z,13.63
2023-03-14T22:51:38.791Z,11.43
2023-03-14T22:55:40.198Z,12.30
2023-03-14T22:59:41.975Z,11.67
2023-03-14T23:03:43.577Z,18.77
2023-03-14T23:07:44.887Z,12.40
2023-03-14T23:11:46.217Z,16.50
2023-03-14T23:15:47.553Z,12.87
2023-03-14T23:19:48.852Z,12.10
2023-03-14T23:23:50.922Z,9.83
2023-03-14T23:27:54.206Z,13.57
2023-03-14T23:31:55.637Z,15.43
2023-03-14T23:35:56.996Z,12.87
2023-03-14T23:39:58.330Z,13.10
2023-03-14T23:44:01.688Z,14.33
2023-03-14T23:48:03.865Z,14.67
2023-03-14T23:52:05.352Z,12.30
2023-03-14T23:56:07.061Z,10.60
